createdAt,value
2022-11-03T00:00:46.411Z,33.23
2022-11-03T00:03:12.958Z,32.63
2022-11-03T00:05:59.599Z,32.54
2022-11-03T00:08:31.682Z,33.07
2022-11-03T00:11:20.259Z,32.27
2022-11-03T00:13:47.079Z,33.12
2022-11-03T00:16:13.782Z,32.58
2022-11-03T00:18:40.386Z,32.13
2022-11-03T00:21:18.420Z,32.10
2022-11-03T00:23:48.767Z,32.22
2022-11-03T00:26:23.552Z,32.18
2022-11-03T00:28:52.497Z,31.94
2022-11-03T00:31:20.673Z,32.16
2022-11-03T00:33:56.605Z,32.53
2022-11-03T00:36:32.227Z,32.51
2022-11-03T00:44:21.357Z,32.89
2022-11-03T00:46:53.542Z,32.83
2022-11-03T00:49:22.218Z,32.56
2022-11-03T00:51:50.900Z,33.19
2022-11-03T00:54:22.518Z,32.57
2022-11-03T00:56:54.269Z,32.68
2022-11-03T00:59:25.801Z,32.66
2022-11-03T01:02:02.506Z,33.16
2022-11-03T01:04:55.603Z,33.32
2022-11-03T01:07:26.000Z,34.11
2022-11-03T01:09:56.234Z,34.31
2022-11-03T01:12:28.803Z,33.99
2022-11-03T01:14:59.763Z,33.94
2022-11-03T01:17:36.231Z,34.30
2022-11-03T01:20:03.730Z,33.96
2022-11-03T01:22:31.850Z,34.73
2022-11-03T01:25:04.312Z,35.02
2022-11-03T01:27:35.977Z,34.64
2022-11-03T01:30:02.749Z,34.75
2022-11-03T01:32:32.144Z,35.14
2022-11-03T01:35:00.472Z,35.10
2022-11-03T01:37:34.296Z,34.76
2022-11-03T01:40:01.715Z,34.40
2022-11-03T01:42:40.996Z,34.97
2022-11-03T01:45:13.568Z,35.51
2022-11-03T01:47:49.551Z,35.79
2022-11-03T01:50:19.898Z,36.05
2022-11-03T01:52:59.870Z,35.44
2022-11-03T01:55:41.744Z,35.53
2022-11-03T01:58:22.234Z,35.62
2022-11-03T02:01:03.799Z,35.83
2022-11-03T02:03:45.202Z,36.03
2022-11-03T02:06:12.338Z,35.92
2022-11-03T02:08:45.562Z,37.45
2022-11-03T02:11:32.065Z,37.16
2022-11-03T02:14:11.264Z,37.93
2022-11-03T02:16:43.663Z,37.62
2022-11-03T02:19:23.445Z,37.58
2022-11-03T02:22:14.489Z,37.67
2022-11-03T02:24:54.026Z,38.04
2022-11-03T02:27:33.229Z,37.64
2022-11-03T02:30:10.859Z,37.44
2022-11-03T02:32:50.211Z,37.81
2022-11-03T02:35:22.812Z,38.03
2022-11-03T02:37:57.266Z,37.75
2022-11-03T02:40:39.205Z,38.62
2022-11-03T02:43:19.956Z,39.53
2022-11-03T02:45:50.390Z,39.67
2022-11-03T02:48:23.765Z,39.03
2022-11-03T02:50:50.347Z,38.87
2022-11-03T02:53:20.025Z,38.71
2022-11-03T02:56:04.585Z,39.00
2022-11-03T02:58:55.936Z,39.39
2022-11-03T03:01:50.648Z,39.74
2022-11-03T03:04:45.981Z,39.88
2022-11-03T03:07:41.248Z,40.12
2022-11-03T03:10:17.542Z,40.38
2022-11-03T03:12:55.493Z,40.07
2022-11-03T03:15:47.885Z,40.14
2022-11-03T03:18:23.984Z,39.90
2022-11-03T03:21:13.215Z,39.38
2022-11-03T03:24:01.708Z,39.78
2022-11-03T03:26:50.165Z,39.86
2022-11-03T03:29:28.742Z,39.79
2022-11-03T03:32:00.582Z,40.27
2022-11-03T03:34:41.472Z,40.79
2022-11-03T03:37:16.011Z,40.74
2022-11-03T03:39:49.548Z,41.73
2022-11-03T03:42:22.972Z,41.88
2022-11-03T03:44:57.105Z,41.30
2022-11-03T03:50:13.612Z,41.48
2022-11-03T03:52:53.669Z,42.04
2022-11-03T03:55:22.339Z,42.44
2022-11-03T03:57:49.009Z,42.12
2022-11-03T04:00:20.325Z,42.30
2022-11-03T04:02:46.927Z,42.19
2022-11-03T04:05:22.795Z,42.47
2022-11-03T04:07:54.712Z,42.84
2022-11-03T04:10:27.371Z,43.04
2022-11-03T04:13:12.520Z,42.90
2022-11-03T04:16:13.162Z,44.25
2022-11-03T04:18:58.141Z,43.45
2022-11-03T04:22:03.119Z,43.37
2022-11-03T04:24:36.369Z,43.61
2022-11-03T04:27:28.159Z,43.33
2022-11-03T04:30:09.695Z,42.74
2022-11-03T04:32:44.531Z,42.92
2022-11-03T04:35:31.401Z,43.22
2022-11-03T04:38:26.632Z,43.22
2022-11-03T04:41:03.149Z,43.76
2022-11-03T04:46:26.059Z,43.80
2022-11-03T04:54:31.898Z,44.26
2022-11-03T04:57:01.080Z,44.09
2022-11-03T05:02:17.663Z,44.90
2022-11-03T05:04:44.433Z,45.01
2022-11-03T05:07:41.991Z,45.65
2022-11-03T05:10:19.310Z,45.07
2022-11-03T05:13:01.133Z,45.16
2022-11-03T05:15:28.764Z,45.27
2022-11-03T05:18:00.996Z,45.43
2022-11-03T05:20:48.139Z,46.03
2022-11-03T05:26:13.421Z,45.94
2022-11-03T05:28:45.414Z,46.13
2022-11-03T05:31:41.751Z,45.75
2022-11-03T05:34:46.237Z,45.58
2022-11-03T05:37:41.511Z,45.56
2022-11-03T05:40:25.708Z,46.26
2022-11-03T05:43:01.568Z,46.62
2022-11-03T05:45:37.422Z,46.92
2022-11-03T05:51:07.016Z,46.42
2022-11-03T05:53:53.765Z,46.65
2022-11-03T06:01:55.286Z,46.42
2022-11-03T06:07:34.903Z,46.08
2022-11-03T06:10:02.839Z,46.12
2022-11-03T06:15:33.071Z,45.52
2022-11-03T06:18:02.235Z,46.06
2022-11-03T06:20:32.193Z,45.63
2022-11-03T06:23:03.315Z,45.16
2022-11-03T06:25:36.347Z,45.82
2022-11-03T06:28:21.938Z,46.23
2022-11-03T06:30:56.966Z,45.61
2022-11-03T06:33:37.633Z,45.05
2022-11-03T06:36:22.041Z,44.55
2022-11-03T06:38:58.737Z,44.96
2022-11-03T06:41:36.203Z,44.58
2022-11-03T06:44:21.475Z,44.29
2022-11-03T06:46:48.098Z,44.70
2022-11-03T06:49:28.614Z,44.32
2022-11-03T06:52:01.797Z,43.64
2022-11-03T06:54:32.725Z,43.66
2022-11-03T06:57:06.939Z,43.25
2022-11-03T07:02:56.848Z,43.26
2022-11-03T07:05:39.993Z,43.61
2022-11-03T07:08:44.057Z,42.73
2022-11-03T07:11:27.888Z,42.43
2022-11-03T07:14:11.106Z,42.85
2022-11-03T07:16:48.086Z,42.98
2022-11-03T07:19:39.966Z,43.50
2022-11-03T07:22:36.488Z,43.51
2022-11-03T07:25:08.520Z,43.80
2022-11-03T07:27:40.276Z,43.34
2022-11-03T07:36:19.475Z,43.03
2022-11-03T07:38:56.406Z,43.51
2022-11-03T07:41:37.628Z,43.75
2022-11-03T07:44:06.095Z,44.52
2022-11-03T07:46:32.719Z,44.61
2022-11-03T07:49:07.392Z,44.22
2022-11-03T07:51:43.055Z,44.63
2022-11-03T07:54:17.200Z,45.52
2022-11-03T07:56:56.130Z,44.59
2022-11-03T07:59:44.445Z,43.92
2022-11-03T08:02:19.830Z,43.66
2022-11-03T08:07:40.457Z,43.49
2022-11-03T08:10:13.741Z,43.04
2022-11-03T08:12:46.758Z,43.91
2022-11-03T08:15:19.778Z,44.30
2022-11-03T08:17:57.201Z,42.79
2022-11-03T08:20:27.978Z,42.79
2022-11-03T08:25:56.629Z,44.26
2022-11-03T08:28:30.542Z,43.98
2022-11-03T08:31:11.213Z,44.59
2022-11-03T08:33:39.303Z,45.48
2022-11-03T08:36:10.645Z,45.59
2022-11-03T08:38:37.944Z,45.15
2022-11-03T08:41:10.472Z,44.93
2022-11-03T08:43:37.072Z,44.88
2022-11-03T08:46:15.466Z,44.19
2022-11-03T08:48:50.904Z,44.29
2022-11-03T08:51:22.552Z,44.33
2022-11-03T08:53:55.171Z,43.83
2022-11-03T08:56:30.307Z,44.23
2022-11-03T08:58:57.813Z,44.16
2022-11-03T09:01:31.966Z,44.27
2022-11-03T09:04:00.634Z,43.51
2022-11-03T09:06:37.846Z,42.77
2022-11-03T09:12:01.755Z,43.35
2022-11-03T09:14:35.688Z,43.10
2022-11-03T09:19:31.631Z,42.28
2022-11-03T09:22:03.997Z,41.86
2022-11-03T09:24:40.618Z,41.66
2022-11-03T09:27:07.577Z,41.97
2022-11-03T09:30:11.116Z,41.94
2022-11-03T09:32:35.214Z,41.75
2022-11-03T09:35:10.033Z,41.32
2022-11-03T09:37:38.198Z,43.39
2022-11-03T09:40:15.610Z,42.89
2022-11-03T09:42:46.766Z,42.25
2022-11-03T09:45:18.266Z,41.23
2022-11-03T09:48:00.926Z,40.85
2022-11-03T09:50:31.868Z,41.64
2022-11-03T09:53:09.180Z,41.24
2022-11-03T09:55:43.398Z,40.98
2022-11-03T09:58:20.712Z,41.32
2022-11-03T10:00:58.353Z,40.27
2022-11-03T10:06:25.293Z,40.13
2022-11-03T10:08:52.952Z,39.65
2022-11-03T10:11:29.387Z,39.32
2022-11-03T10:14:04.637Z,39.94
2022-11-03T10:16:31.269Z,39.22
2022-11-03T10:19:01.966Z,38.91
2022-11-03T10:21:37.638Z,38.83
2022-11-03T10:24:06.279Z,38.33
2022-11-03T10:26:47.071Z,38.40
2022-11-03T10:29:34.596Z,38.22
2022-11-03T10:32:10.181Z,38.54
2022-11-03T10:34:39.649Z,38.79
2022-11-03T10:37:44.593Z,37.57
2022-11-03T10:40:53.796Z,37.92
2022-11-03T10:43:29.885Z,37.67
2022-11-03T10:46:36.417Z,37.67
2022-11-03T10:49:14.697Z,37.13
2022-11-03T10:51:49.194Z,36.95
2022-11-03T10:54:24.638Z,36.12
2022-11-03T10:56:52.397Z,35.05
2022-11-03T10:59:31.386Z,34.68
2022-11-03T11:01:59.788Z,34.07
2022-11-03T11:04:33.970Z,34.32
2022-11-03T11:07:12.928Z,34.36
2022-11-03T11:09:44.308Z,34.40
2022-11-03T11:12:28.593Z,34.09
2022-11-03T11:15:08.052Z,33.85
2022-11-03T11:17:37.503Z,33.68
2022-11-03T11:20:19.621Z,33.66
2022-11-03T11:22:51.816Z,33.78
2022-11-03T11:25:29.210Z,33.21
2022-11-03T11:28:03.584Z,33.46
2022-11-03T11:30:39.029Z,33.05
2022-11-03T11:33:15.993Z,32.79
2022-11-03T11:35:44.105Z,32.94
2022-11-03T11:39:05.061Z,32.55
2022-11-03T11:42:18.594Z,32.13
2022-11-03T11:44:56.054Z,32.33
2022-11-03T11:47:33.737Z,32.13
2022-11-03T11:50:15.665Z,31.06
2022-11-03T11:52:51.194Z,31.28
2022-11-03T11:55:21.715Z,30.81
2022-11-03T11:57:51.440Z,30.99
2022-11-03T12:00:27.025Z,31.06
2022-11-03T12:03:00.465Z,30.58
2022-11-03T12:05:45.312Z,31.77
2022-11-03T12:08:19.552Z,31.84
2022-11-03T12:10:53.785Z,31.20
2022-11-03T12:13:47.648Z,31.26
2022-11-03T12:16:29.589Z,31.70
2022-11-03T12:19:03.504Z,31.48
2022-11-03T12:21:59.186Z,31.22
2022-11-03T12:24:35.102Z,31.91
2022-11-03T12:27:03.638Z,32.32
2022-11-03T12:29:30.424Z,34.18
2022-11-03T12:31:56.993Z,33.01
2022-11-03T12:34:29.442Z,33.63
2022-11-03T12:37:02.920Z,33.07
2022-11-03T12:39:32.783Z,32.06
2022-11-03T12:42:11.475Z,31.71
2022-11-03T12:44:47.794Z,32.00
2022-11-03T12:47:18.490Z,31.72
2022-11-03T12:49:49.003Z,31.95
2022-11-03T12:52:22.823Z,32.18
2022-11-03T12:54:51.400Z,32.40
2022-11-03T12:57:17.969Z,31.93
2022-11-03T12:59:52.293Z,31.54
2022-11-03T13:02:19.108Z,31.83
2022-11-03T13:04:46.186Z,31.65
2022-11-03T13:07:25.594Z,31.65
2022-11-03T13:10:02.362Z,31.70
2022-11-03T13:12:39.720Z,31.78
2022-11-03T13:15:14.263Z,31.79
2022-11-03T13:20:34.696Z,32.02
2022-11-03T13:23:22.943Z,31.53
2022-11-03T13:25:57.359Z,31.86
2022-11-03T13:31:07.402Z,31.71
2022-11-03T13:33:38.555Z,31.94
2022-11-03T13:39:07.307Z,32.29
2022-11-03T13:41:38.159Z,32.74
2022-11-03T13:44:06.608Z,32.69
2022-11-03T13:46:42.110Z,32.38
2022-11-03T13:52:06.604Z,32.69
2022-11-03T14:00:28.477Z,33.86
2022-11-03T14:05:47.802Z,34.02
2022-11-03T14:11:00.343Z,33.67
2022-11-03T14:16:07.647Z,34.15
2022-11-03T14:18:37.102Z,34.17
2022-11-03T14:21:33.458Z,34.42
2022-11-03T14:24:11.386Z,35.18
2022-11-03T14:26:42.686Z,34.90
2022-11-03T14:29:16.312Z,34.91
2022-11-03T14:31:46.163Z,35.00
2022-11-03T14:34:22.418Z,35.38
2022-11-03T14:37:06.157Z,35.09
2022-11-03T14:39:44.877Z,35.24
2022-11-03T14:42:22.866Z,35.38
2022-11-03T14:47:29.723Z,35.78
2022-11-03T14:50:01.358Z,35.78
2022-11-03T14:52:37.764Z,35.96
2022-11-03T14:55:09.823Z,35.99
2022-11-03T14:57:36.539Z,36.04
2022-11-03T15:00:10.271Z,36.04
2022-11-03T15:02:45.635Z,36.21
2022-11-03T15:05:46.147Z,36.46
2022-11-03T15:08:21.297Z,36.36
2022-11-03T15:10:55.364Z,36.60
2022-11-03T15:13:25.990Z,36.58
2022-11-03T15:15:52.616Z,36.74
2022-11-03T15:18:26.694Z,36.76
2022-11-03T15:29:21.132Z,37.31
2022-11-03T15:31:54.879Z,37.14
2022-11-03T15:34:21.549Z,37.39
2022-11-03T15:36:54.018Z,37.43
2022-11-03T15:39:24.225Z,37.27
2022-11-03T15:41:50.891Z,37.26
2022-11-03T15:44:30.604Z,37.33
2022-11-03T15:46:57.229Z,37.75
2022-11-03T15:49:33.570Z,37.32
2022-11-03T15:52:00.157Z,37.84
2022-11-03T15:54:42.282Z,37.48
2022-11-03T15:57:43.247Z,37.50
2022-11-03T16:03:12.014Z,37.32
2022-11-03T16:05:47.811Z,37.27
2022-11-03T16:08:23.911Z,37.24
2022-11-03T16:13:48.918Z,36.75
2022-11-03T16:16:26.076Z,36.98
2022-11-03T16:18:52.760Z,36.72
2022-11-03T16:21:26.328Z,36.51
2022-11-03T16:24:02.017Z,39.22
2022-11-03T16:26:29.106Z,39.83
2022-11-03T16:28:55.717Z,39.38
2022-11-03T16:31:29.611Z,38.98
2022-11-03T16:34:07.342Z,39.25
2022-11-03T16:36:47.987Z,39.31
2022-11-03T16:39:20.869Z,39.08
2022-11-03T16:42:00.450Z,39.00
2022-11-03T16:44:37.682Z,39.02
2022-11-03T16:47:09.445Z,38.66
2022-11-03T16:49:41.473Z,38.96
2022-11-03T16:52:11.321Z,39.44
2022-11-03T16:57:19.645Z,39.17
2022-11-03T16:59:50.022Z,39.11
2022-11-03T17:02:16.920Z,39.24
2022-11-03T17:04:50.636Z,39.59
2022-11-03T17:07:20.670Z,40.07
2022-11-03T17:12:36.777Z,40.67
2022-11-03T17:15:14.588Z,40.50
2022-11-03T17:17:41.598Z,40.30
2022-11-03T17:20:09.661Z,40.15
2022-11-03T17:22:47.693Z,40.20
2022-11-03T17:25:14.729Z,40.09
2022-11-03T17:28:00.405Z,40.02
2022-11-03T17:30:38.465Z,40.17
2022-11-03T17:33:16.141Z,40.49
2022-11-03T17:35:54.763Z,40.62
2022-11-03T17:38:25.785Z,40.74
2022-11-03T17:40:57.836Z,40.76
2022-11-03T17:43:31.271Z,40.72
2022-11-03T17:46:33.675Z,40.94
2022-11-03T17:49:13.940Z,41.17
2022-11-03T17:51:43.351Z,41.19
2022-11-03T17:54:16.177Z,41.22
2022-11-03T17:56:42.944Z,41.29
2022-11-03T18:10:13.241Z,41.70
2022-11-03T18:13:33.044Z,41.62
2022-11-03T18:18:48.951Z,41.54
2022-11-03T18:21:26.804Z,41.41
2022-11-03T18:24:01.843Z,41.33
2022-11-03T18:32:02.222Z,41.40
2022-11-03T18:34:35.361Z,41.40
2022-11-03T18:37:03.092Z,41.52
2022-11-03T18:39:29.888Z,41.48
2022-11-03T18:42:20.766Z,41.73
2022-11-03T18:44:48.797Z,41.88
2022-11-03T18:47:15.482Z,42.04
2022-11-03T18:49:49.800Z,42.05
2022-11-03T18:52:19.507Z,42.47
2022-11-03T18:54:50.377Z,42.34
2022-11-03T18:57:36.480Z,42.50
2022-11-03T19:00:15.102Z,42.59
2022-11-03T19:02:44.408Z,42.49
2022-11-03T19:05:22.006Z,42.35
2022-11-03T19:07:50.256Z,42.10
2022-11-03T19:10:26.365Z,41.62
2022-11-03T19:13:05.693Z,41.94
2022-11-03T19:15:41.057Z,41.93
2022-11-03T19:18:10.779Z,41.85
2022-11-03T19:20:45.582Z,42.26
2022-11-03T19:23:18.388Z,43.83
2022-11-03T19:25:46.545Z,43.54
2022-11-03T19:28:25.614Z,43.37
2022-11-03T19:30:57.634Z,44.74
2022-11-03T19:33:39.439Z,44.67
2022-11-03T19:36:06.729Z,44.63
2022-11-03T19:38:39.980Z,44.41
2022-11-03T19:41:43.937Z,44.03
2022-11-03T19:44:22.316Z,44.60
2022-11-03T19:46:56.466Z,44.16
2022-11-03T19:49:23.431Z,44.38
2022-11-03T19:51:50.243Z,44.31
2022-11-03T19:54:21.623Z,43.96
2022-11-03T19:57:01.450Z,43.90
2022-11-03T19:59:33.773Z,43.57
2022-11-03T20:02:00.535Z,44.19
2022-11-03T20:04:27.371Z,43.90
2022-11-03T20:09:37.098Z,43.57
2022-11-03T20:12:14.368Z,43.53
2022-11-03T20:14:47.979Z,43.34
2022-11-03T20:17:22.574Z,43.37
2022-11-03T20:22:38.943Z,43.30
2022-11-03T20:25:16.737Z,43.26
2022-11-03T20:27:48.667Z,43.32
2022-11-03T20:30:18.025Z,43.78
2022-11-03T20:32:48.801Z,43.64
2022-11-03T20:35:24.643Z,43.80
2022-11-03T20:37:55.487Z,44.28
2022-11-03T20:40:32.421Z,43.86
2022-11-03T20:43:11.329Z,44.94
2022-11-03T20:45:48.368Z,44.55
2022-11-03T20:48:17.366Z,44.32
2022-11-03T20:50:44.217Z,44.68
2022-11-03T20:53:23.094Z,44.53
2022-11-03T20:55:52.132Z,44.26
2022-11-03T20:58:18.967Z,44.29
2022-11-03T21:00:55.226Z,44.30
2022-11-03T21:03:58.008Z,44.36
2022-11-03T21:06:28.579Z,44.58
2022-11-03T21:09:07.001Z,44.56
2022-11-03T21:11:51.740Z,44.68
2022-11-03T21:14:34.077Z,44.52
2022-11-03T21:17:19.617Z,44.37
2022-11-03T21:20:01.774Z,44.33
2022-11-03T21:22:54.778Z,44.62
2022-11-03T21:25:28.681Z,44.63
2022-11-03T21:27:55.402Z,44.63
2022-11-03T21:30:26.605Z,44.75
2022-11-03T21:32:55.015Z,44.71
2022-11-03T21:35:35.321Z,44.78
2022-11-03T21:38:06.861Z,45.37
2022-11-03T21:40:44.030Z,44.98
2022-11-03T21:43:30.097Z,44.49
2022-11-03T21:46:28.410Z,44.46
2022-11-03T21:49:24.417Z,44.72
2022-11-03T21:51:51.574Z,44.89
2022-11-03T21:54:19.753Z,44.84
2022-11-03T21:56:46.453Z,44.80
2022-11-03T21:59:13.242Z,44.84
2022-11-03T22:01:40.640Z,45.16
2022-11-03T22:04:07.346Z,45.49
2022-11-03T22:06:47.847Z,45.34
2022-11-03T22:09:21.673Z,45.10
2022-11-03T22:12:00.415Z,45.36
2022-11-03T22:14:29.126Z,45.86
2022-11-03T22:19:54.082Z,46.01
2022-11-03T22:22:44.422Z,45.54
2022-11-03T22:25:35.365Z,45.90
2022-11-03T22:28:02.001Z,45.89
2022-11-03T22:30:52.341Z,45.84
2022-11-03T22:33:24.633Z,45.74
2022-11-03T22:36:10.061Z,45.54
2022-11-03T22:38:57.768Z,45.67
2022-11-03T22:42:03.552Z,46.01
2022-11-03T22:45:01.960Z,46.04
2022-11-03T22:47:37.319Z,46.18
2022-11-03T22:50:09.958Z,46.17
2022-11-03T22:52:41.860Z,46.02
2022-11-03T22:55:08.543Z,45.76
2022-11-03T22:57:40.027Z,46.19
2022-11-03T23:00:07.139Z,46.01
2022-11-03T23:02:33.883Z,45.81
2022-11-03T23:05:01.610Z,46.31
2022-11-03T23:07:38.499Z,46.61
2022-11-03T23:10:23.550Z,46.76
2022-11-03T23:12:55.231Z,46.63
2022-11-03T23:15:39.628Z,46.69
2022-11-03T23:18:31.974Z,47.36
2022-11-03T23:21:07.685Z,47.36
2022-11-03T23:24:02.141Z,47.80
2022-11-03T23:26:29.105Z,47.06
2022-11-03T23:29:00.351Z,46.74
2022-11-03T23:31:31.606Z,46.44
2022-11-03T23:34:01.792Z,46.90
2022-11-03T23:36:35.438Z,46.72
2022-11-03T23:39:03.459Z,46.54
2022-11-03T23:41:30.833Z,46.49
2022-11-03T23:44:07.127Z,46.52
2022-11-03T23:47:00.728Z,46.18
2022-11-03T23:49:30.717Z,46.63
2022-11-03T23:51:57.395Z,46.96
2022-11-03T23:54:25.533Z,47.04
2022-11-03T23:57:17.550Z,47.04
2022-11-03T23:59:53.136Z,47.30
